sensor_id;sensor_type;location;lat;lon;timestamp;pressure;altitude;pressure_sealevel;temperature;humidity
45129;BME280;35512;56.312;101.728;2023-09-18T00:01:33;96694.34;;;8.52;48.31
45129;BME280;35512;56.312;101.728;2023-09-18T00:04:03;96696.50;;;8.75;48.27
45129;BME280;35512;56.312;101.728;2023-09-18T00:06:32;96692.13;;;8.99;48.14
45129;BME280;35512;56.312;101.728;2023-09-18T00:09:01;96698.16;;;9.24;48.23
45129;BME280;35512;56.312;101.728;2023-09-18T00:11:30;96697.22;;;9.48;47.94
45129;BME280;35512;56.312;101.728;2023-09-18T00:13:58;96697.28;;;9.68;47.74
45129;BME280;35512;56.312;101.728;2023-09-18T00:16:27;96699.25;;;9.87;47.93
45129;BME280;35512;56.312;101.728;2023-09-18T00:18:55;96709.31;;;10.06;47.85
45129;BME280;35512;56.312;101.728;2023-09-18T00:21:24;96705.13;;;10.24;47.87
45129;BME280;35512;56.312;101.728;2023-09-18T00:23:53;96701.31;;;10.45;47.75
45129;BME280;35512;56.312;101.728;2023-09-18T00:26:21;96708.22;;;10.62;47.89
45129;BME280;35512;56.312;101.728;2023-09-18T00:28:52;96704.41;;;10.82;48.11
45129;BME280;35512;56.312;101.728;2023-09-18T00:31:21;96703.59;;;11.02;48.09
45129;BME280;35512;56.312;101.728;2023-09-18T00:33:49;96705.13;;;11.22;47.83
45129;BME280;35512;56.312;101.728;2023-09-18T00:36:18;96709.34;;;11.43;48.13
45129;BME280;35512;56.312;101.728;2023-09-18T00:38:46;96699.94;;;11.60;47.70
45129;BME280;35512;56.312;101.728;2023-09-18T00:41:15;96706.47;;;11.82;47.91
45129;BME280;35512;56.312;101.728;2023-09-18T00:43:43;96702.19;;;12.04;47.67
45129;BME280;35512;56.312;101.728;2023-09-18T00:46:12;96705.84;;;12.46;47.59
45129;BME280;35512;56.312;101.728;2023-09-18T00:48:40;96709.47;;;13.66;45.82
45129;BME280;35512;56.312;101.728;2023-09-18T00:51:09;96709.44;;;14.99;44.20
45129;BME280;35512;56.312;101.728;2023-09-18T00:53:38;96700.94;;;16.27;42.92
45129;BME280;35512;56.312;101.728;2023-09-18T00:56:07;96709.84;;;17.38;42.44
45129;BME280;35512;56.312;101.728;2023-09-18T00:58:35;96709.84;;;18.36;41.97
45129;BME280;35512;56.312;101.728;2023-09-18T01:01:04;96715.94;;;19.16;41.83
45129;BME280;35512;56.312;101.728;2023-09-18T01:03:34;96716.31;;;19.97;41.27
45129;BME280;35512;56.312;101.728;2023-09-18T01:06:02;96715.25;;;20.78;40.96
45129;BME280;35512;56.312;101.728;2023-09-18T01:08:31;96712.66;;;21.64;40.42
45129;BME280;35512;56.312;101.728;2023-09-18T01:13:51;96723.56;;;22.76;39.35
45129;BME280;35512;56.312;101.728;2023-09-18T01:16:32;96727.44;;;23.34;38.99
45129;BME280;35512;56.312;101.728;2023-09-18T01:19:03;96728.31;;;23.95;38.55
45129;BME280;35512;56.312;101.728;2023-09-18T01:21:31;96735.09;;;24.64;38.21
45129;BME280;35512;56.312;101.728;2023-09-18T01:24:00;96730.34;;;25.40;37.44
45129;BME280;35512;56.312;101.728;2023-09-18T01:26:28;96732.25;;;26.03;37.01
45129;BME280;35512;56.312;101.728;2023-09-18T01:28:56;96733.97;;;26.28;36.23
45129;BME280;35512;56.312;101.728;2023-09-18T01:31:25;96738.94;;;26.70;36.42
45129;BME280;35512;56.312;101.728;2023-09-18T01:33:54;96742.22;;;27.30;36.00
45129;BME280;35512;56.312;101.728;2023-09-18T01:36:23;96741.88;;;27.80;35.09
45129;BME280;35512;56.312;101.728;2023-09-18T01:38:52;96738.31;;;28.37;34.94
45129;BME280;35512;56.312;101.728;2023-09-18T01:41:21;96740.66;;;28.93;34.44
45129;BME280;35512;56.312;101.728;2023-09-18T01:43:50;96741.13;;;29.51;33.78
45129;BME280;35512;56.312;101.728;2023-09-18T01:46:19;96747.09;;;29.94;33.09
45129;BME280;35512;56.312;101.728;2023-09-18T01:48:47;96743.72;;;30.26;32.47
45129;BME280;35512;56.312;101.728;2023-09-18T01:51:16;96738.63;;;30.65;32.03
45129;BME280;35512;56.312;101.728;2023-09-18T01:53:45;96746.56;;;30.99;31.82
45129;BME280;35512;56.312;101.728;2023-09-18T01:56:13;96744.25;;;31.50;31.37
45129;BME280;35512;56.312;101.728;2023-09-18T01:58:42;96748.59;;;31.94;30.84
45129;BME280;35512;56.312;101.728;2023-09-18T02:01:11;96744.88;;;32.09;29.94
45129;BME280;35512;56.312;101.728;2023-09-18T02:03:40;96745.13;;;32.11;30.04
45129;BME280;35512;56.312;101.728;2023-09-18T02:06:29;96751.34;;;32.21;29.67
45129;BME280;35512;56.312;101.728;2023-09-18T02:08:58;96750.38;;;32.35;29.15
45129;BME280;35512;56.312;101.728;2023-09-18T02:11:27;96752.72;;;32.48;29.13
45129;BME280;35512;56.312;101.728;2023-09-18T02:13:56;96755.38;;;32.80;28.34
45129;BME280;35512;56.312;101.728;2023-09-18T02:16:24;96760.25;;;33.02;28.06
45129;BME280;35512;56.312;101.728;2023-09-18T02:18:54;96763.81;;;33.19;28.02
45129;BME280;35512;56.312;101.728;2023-09-18T02:21:24;96761.59;;;33.46;27.55
45129;BME280;35512;56.312;101.728;2023-09-18T02:23:53;96763.09;;;33.81;27.52
45129;BME280;35512;56.312;101.728;2023-09-18T02:26:23;96764.06;;;34.07;27.23
45129;BME280;35512;56.312;101.728;2023-09-18T02:28:52;96768.34;;;34.25;26.67
45129;BME280;35512;56.312;101.728;2023-09-18T02:31:22;96765.78;;;34.38;26.24
45129;BME280;35512;56.312;101.728;2023-09-18T02:33:51;96773.41;;;34.26;26.32
45129;BME280;35512;56.312;101.728;2023-09-18T02:36:19;96772.66;;;34.37;26.07
45129;BME280;35512;56.312;101.728;2023-09-18T02:38:49;96779.22;;;34.57;26.08
45129;BME280;35512;56.312;101.728;2023-09-18T02:41:18;96766.84;;;34.88;25.98
45129;BME280;35512;56.312;101.728;2023-09-18T02:43:46;96768.22;;;35.12;25.33
45129;BME280;35512;56.312;101.728;2023-09-18T02:46:16;96767.63;;;35.25;25.49
45129;BME280;35512;56.312;101.728;2023-09-18T02:48:45;96777.63;;;35.50;25.10
45129;BME280;35512;56.312;101.728;2023-09-18T02:51:13;96774.34;;;35.77;24.41
45129;BME280;35512;56.312;101.728;2023-09-18T02:53:42;96776.63;;;35.78;24.18
45129;BME280;35512;56.312;101.728;2023-09-18T02:56:10;96775.31;;;35.85;23.84
45129;BME280;35512;56.312;101.728;2023-09-18T02:58:39;96774.56;;;36.09;23.92
45129;BME280;35512;56.312;101.728;2023-09-18T03:01:08;96774.66;;;36.22;23.75
45129;BME280;35512;56.312;101.728;2023-09-18T03:03:38;96777.47;;;36.47;23.25
45129;BME280;35512;56.312;101.728;2023-09-18T03:06:07;96771.00;;;36.52;23.21
45129;BME280;35512;56.312;101.728;2023-09-18T03:08:35;96770.38;;;36.84;23.30
45129;BME280;35512;56.312;101.728;2023-09-18T03:11:11;96771.19;;;37.17;22.71
45129;BME280;35512;56.312;101.728;2023-09-18T03:13:44;96766.38;;;37.12;22.29
45129;BME280;35512;56.312;101.728;2023-09-18T03:16:18;96766.06;;;37.35;22.28
45129;BME280;35512;56.312;101.728;2023-09-18T03:18:47;96766.53;;;37.39;22.08
45129;BME280;35512;56.312;101.728;2023-09-18T03:21:17;96766.19;;;37.43;22.25
45129;BME280;35512;56.312;101.728;2023-09-18T03:23:46;96767.66;;;37.63;21.95
45129;BME280;35512;56.312;101.728;2023-09-18T03:26:14;96767.72;;;37.90;21.67
45129;BME280;35512;56.312;101.728;2023-09-18T03:28:43;96771.00;;;38.07;21.66
45129;BME280;35512;56.312;101.728;2023-09-18T03:31:11;96774.13;;;38.44;21.21
45129;BME280;35512;56.312;101.728;2023-09-18T03:33:40;96761.34;;;38.56;20.76
45129;BME280;35512;56.312;101.728;2023-09-18T03:36:08;96768.91;;;38.75;20.43
45129;BME280;35512;56.312;101.728;2023-09-18T03:38:39;96766.28;;;39.11;20.10
45129;BME280;35512;56.312;101.728;2023-09-18T03:41:07;96773.50;;;39.33;20.00
45129;BME280;35512;56.312;101.728;2023-09-18T03:43:36;96768.34;;;39.45;19.85
45129;BME280;35512;56.312;101.728;2023-09-18T03:46:05;96761.84;;;39.58;19.66
45129;BME280;35512;56.312;101.728;2023-09-18T03:48:42;96770.59;;;39.47;19.47
45129;BME280;35512;56.312;101.728;2023-09-18T03:51:11;96767.78;;;39.26;19.42
45129;BME280;35512;56.312;101.728;2023-09-18T03:53:44;96768.72;;;39.28;19.46
45129;BME280;35512;56.312;101.728;2023-09-18T03:56:12;96768.63;;;39.34;19.51
45129;BME280;35512;56.312;101.728;2023-09-18T03:58:41;96765.44;;;39.37;19.27
45129;BME280;35512;56.312;101.728;2023-09-18T04:01:10;96759.78;;;39.37;19.30
45129;BME280;35512;56.312;101.728;2023-09-18T04:03:39;96764.81;;;39.52;18.98
45129;BME280;35512;56.312;101.728;2023-09-18T04:06:07;96761.66;;;39.56;18.63
45129;BME280;35512;56.312;101.728;2023-09-18T04:08:36;96759.00;;;39.58;18.87
45129;BME280;35512;56.312;101.728;2023-09-18T04:11:04;96750.81;;;39.89;18.94
45129;BME280;35512;56.312;101.728;2023-09-18T04:13:35;96749.50;;;39.90;18.38
45129;BME280;35512;56.312;101.728;2023-09-18T04:16:05;96740.69;;;39.72;18.62
45129;BME280;35512;56.312;101.728;2023-09-18T04:18:34;96744.91;;;40.08;18.55
45129;BME280;35512;56.312;101.728;2023-09-18T04:21:02;96750.47;;;40.58;17.92
45129;BME280;35512;56.312;101.728;2023-09-18T04:23:31;96744.47;;;40.69;17.85
45129;BME280;35512;56.312;101.728;2023-09-18T04:25:59;96746.06;;;40.94;17.60
45129;BME280;35512;56.312;101.728;2023-09-18T04:28:29;96740.81;;;40.98;17.71
45129;BME280;35512;56.312;101.728;2023-09-18T04:30:59;96744.50;;;40.85;17.29
45129;BME280;35512;56.312;101.728;2023-09-18T04:33:30;96742.59;;;40.72;17.19
45129;BME280;35512;56.312;101.728;2023-09-18T04:35:59;96751.25;;;40.66;17.24
45129;BME280;35512;56.312;101.728;2023-09-18T04:38:27;96737.13;;;40.82;17.15
45129;BME280;35512;56.312;101.728;2023-09-18T04:40:59;96739.69;;;41.09;17.40
45129;BME280;35512;56.312;101.728;2023-09-18T04:43:28;96743.09;;;41.22;17.30
45129;BME280;35512;56.312;101.728;2023-09-18T04:46:00;96747.78;;;41.12;16.83
45129;BME280;35512;56.312;101.728;2023-09-18T04:48:35;96734.25;;;41.42;17.34
45129;BME280;35512;56.312;101.728;2023-09-18T04:51:05;96746.91;;;41.71;16.89
45129;BME280;35512;56.312;101.728;2023-09-18T04:53:33;96739.34;;;41.74;16.37
45129;BME280;35512;56.312;101.728;2023-09-18T04:56:03;96735.19;;;41.91;16.21
45129;BME280;35512;56.312;101.728;2023-09-18T04:58:31;96741.03;;;41.69;16.63
45129;BME280;35512;56.312;101.728;2023-09-18T05:01:00;96741.66;;;41.60;16.12
45129;BME280;35512;56.312;101.728;2023-09-18T05:03:30;96736.72;;;41.68;16.64
45129;BME280;35512;56.312;101.728;2023-09-18T05:05:58;96729.34;;;41.88;16.54
45129;BME280;35512;56.312;101.728;2023-09-18T05:08:27;96729.13;;;41.79;16.50
45129;BME280;35512;56.312;101.728;2023-09-18T05:10:55;96728.38;;;41.94;15.76
45129;BME280;35512;56.312;101.728;2023-09-18T05:13:25;96722.34;;;41.89;16.11
45129;BME280;35512;56.312;101.728;2023-09-18T05:15:53;96727.84;;;41.87;16.03
45129;BME280;35512;56.312;101.728;2023-09-18T05:18:22;96727.00;;;42.26;15.88
45129;BME280;35512;56.312;101.728;2023-09-18T05:20:50;96726.66;;;42.70;15.30
45129;BME280;35512;56.312;101.728;2023-09-18T05:23:19;96714.94;;;42.66;14.92
45129;BME280;35512;56.312;101.728;2023-09-18T05:25:47;96719.22;;;42.34;15.20
45129;BME280;35512;56.312;101.728;2023-09-18T05:28:15;96717.06;;;42.50;15.20
45129;BME280;35512;56.312;101.728;2023-09-18T05:30:44;96712.38;;;42.45;14.75
45129;BME280;35512;56.312;101.728;2023-09-18T05:33:12;96705.03;;;42.34;14.62
45129;BME280;35512;56.312;101.728;2023-09-18T05:35:42;96714.31;;;42.27;14.77
45129;BME280;35512;56.312;101.728;2023-09-18T05:38:11;96713.88;;;42.46;14.91
45129;BME280;35512;56.312;101.728;2023-09-18T05:40:41;96712.88;;;42.59;15.19
45129;BME280;35512;56.312;101.728;2023-09-18T05:43:11;96707.75;;;42.65;14.67
45129;BME280;35512;56.312;101.728;2023-09-18T05:45:40;96714.47;;;42.36;14.67
45129;BME280;35512;56.312;101.728;2023-09-18T05:48:08;96707.09;;;42.33;14.76
45129;BME280;35512;56.312;101.728;2023-09-18T05:50:38;96706.63;;;42.68;14.81
45129;BME280;35512;56.312;101.728;2023-09-18T05:53:06;96703.31;;;43.12;14.75
45129;BME280;35512;56.312;101.728;2023-09-18T05:55:35;96699.06;;;43.46;14.63
45129;BME280;35512;56.312;101.728;2023-09-18T05:58:03;96710.63;;;43.91;14.27
45129;BME280;35512;56.312;101.728;2023-09-18T06:00:32;96694.81;;;44.15;14.23
45129;BME280;35512;56.312;101.728;2023-09-18T06:03:02;96692.09;;;44.52;13.85
45129;BME280;35512;56.312;101.728;2023-09-18T06:05:31;96694.94;;;44.52;13.96
45129;BME280;35512;56.312;101.728;2023-09-18T06:07:59;96689.56;;;44.29;13.93
45129;BME280;35512;56.312;101.728;2023-09-18T06:10:28;96689.44;;;44.37;14.26
45129;BME280;35512;56.312;101.728;2023-09-18T06:12:56;96692.56;;;44.59;13.61
45129;BME280;35512;56.312;101.728;2023-09-18T06:15:26;96692.25;;;43.49;13.53
45129;BME280;35512;56.312;101.728;2023-09-18T06:17:54;96687.22;;;41.46;14.05
45129;BME280;35512;56.312;101.728;2023-09-18T06:20:23;96683.41;;;39.22;15.63
45129;BME280;35512;56.312;101.728;2023-09-18T06:22:51;96687.91;;;36.90;16.53
45129;BME280;35512;56.312;101.728;2023-09-18T06:25:20;96690.56;;;34.42;17.77
45129;BME280;35512;56.312;101.728;2023-09-18T06:27:48;96683.44;;;32.97;18.22
45129;BME280;35512;56.312;101.728;2023-09-18T06:30:17;96677.56;;;31.20;19.10
45129;BME280;35512;56.312;101.728;2023-09-18T06:32:45;96684.09;;;29.61;19.69
45129;BME280;35512;56.312;101.728;2023-09-18T06:35:14;96685.63;;;28.28;20.43
45129;BME280;35512;56.312;101.728;2023-09-18T06:37:42;96678.91;;;27.28;21.08
45129;BME280;35512;56.312;101.728;2023-09-18T06:40:11;96677.22;;;26.60;21.16
45129;BME280;35512;56.312;101.728;2023-09-18T06:42:39;96674.13;;;26.49;21.64
45129;BME280;35512;56.312;101.728;2023-09-18T06:45:11;96677.19;;;29.21;20.65
45129;BME280;35512;56.312;101.728;2023-09-18T06:47:40;96675.88;;;32.15;19.67
45129;BME280;35512;56.312;101.728;2023-09-18T06:50:09;96667.06;;;33.98;18.63
45129;BME280;35512;56.312;101.728;2023-09-18T06:52:40;96666.22;;;34.14;18.03
45129;BME280;35512;56.312;101.728;2023-09-18T06:55:08;96666.75;;;32.26;18.61
45129;BME280;35512;56.312;101.728;2023-09-18T06:57:37;96667.75;;;30.05;20.11
45129;BME280;35512;56.312;101.728;2023-09-18T07:00:06;96664.00;;;28.32;21.13
45129;BME280;35512;56.312;101.728;2023-09-18T07:02:36;96660.81;;;26.99;21.92
45129;BME280;35512;56.312;101.728;2023-09-18T07:05:04;96665.00;;;25.84;22.44
45129;BME280;35512;56.312;101.728;2023-09-18T07:07:33;96662.41;;;24.98;23.10
45129;BME280;35512;56.312;101.728;2023-09-18T07:10:01;96668.28;;;24.34;23.61
45129;BME280;35512;56.312;101.728;2023-09-18T07:12:32;96665.09;;;23.88;24.18
45129;BME280;35512;56.312;101.728;2023-09-18T07:15:01;96663.97;;;23.98;25.22
45129;BME280;35512;56.312;101.728;2023-09-18T07:17:33;96667.00;;;24.92;24.16
45129;BME280;35512;56.312;101.728;2023-09-18T07:20:01;96671.22;;;25.06;24.10
45129;BME280;35512;56.312;101.728;2023-09-18T07:22:37;96668.41;;;24.97;24.03
45129;BME280;35512;56.312;101.728;2023-09-18T07:25:06;96661.31;;;24.96;24.24
45129;BME280;35512;56.312;101.728;2023-09-18T07:27:35;96663.41;;;25.14;24.25
45129;BME280;35512;56.312;101.728;2023-09-18T07:30:06;96667.03;;;25.33;24.19
45129;BME280;35512;56.312;101.728;2023-09-18T07:32:35;96664.13;;;25.37;24.23
45129;BME280;35512;56.312;101.728;2023-09-18T07:35:08;96665.53;;;25.41;24.35
45129;BME280;35512;56.312;101.728;2023-09-18T07:37:37;96666.16;;;25.36;24.51
45129;BME280;35512;56.312;101.728;2023-09-18T07:40:06;96662.53;;;25.26;24.62
45129;BME280;35512;56.312;101.728;2023-09-18T07:42:34;96670.41;;;24.96;24.96
45129;BME280;35512;56.312;101.728;2023-09-18T07:45:03;96670.59;;;24.58;25.05
45129;BME280;35512;56.312;101.728;2023-09-18T07:47:32;96673.41;;;24.23;25.30
45129;BME280;35512;56.312;101.728;2023-09-18T07:50:00;96673.16;;;23.95;25.33
45129;BME280;35512;56.312;101.728;2023-09-18T07:52:30;96673.31;;;23.66;25.64
45129;BME280;35512;56.312;101.728;2023-09-18T07:54:59;96679.28;;;23.38;25.87
45129;BME280;35512;56.312;101.728;2023-09-18T07:57:29;96670.13;;;23.16;26.15
45129;BME280;35512;56.312;101.728;2023-09-18T08:00:00;96669.81;;;22.71;27.28
45129;BME280;35512;56.312;101.728;2023-09-18T08:02:39;96670.16;;;22.15;27.92
45129;BME280;35512;56.312;101.728;2023-09-18T08:05:08;96677.16;;;21.86;28.19
45129;BME280;35512;56.312;101.728;2023-09-18T08:07:37;96669.09;;;21.63;28.80
45129;BME280;35512;56.312;101.728;2023-09-18T08:10:05;96676.34;;;21.36;29.24
45129;BME280;35512;56.312;101.728;2023-09-18T08:12:38;96671.88;;;21.26;29.25
45129;BME280;35512;56.312;101.728;2023-09-18T08:15:06;96676.31;;;21.20;29.53
45129;BME280;35512;56.312;101.728;2023-09-18T08:17:36;96670.50;;;21.18;29.73
45129;BME280;35512;56.312;101.728;2023-09-18T08:20:05;96665.59;;;21.09;29.87
45129;BME280;35512;56.312;101.728;2023-09-18T08:22:40;96665.81;;;20.98;30.32
45129;BME280;35512;56.312;101.728;2023-09-18T08:25:09;96667.81;;;20.77;30.53
45129;BME280;35512;56.312;101.728;2023-09-18T08:27:38;96673.50;;;20.67;30.72
45129;BME280;35512;56.312;101.728;2023-09-18T08:30:13;96666.41;;;20.69;30.73
45129;BME280;35512;56.312;101.728;2023-09-18T08:32:42;96663.56;;;20.76;30.85
45129;BME280;35512;56.312;101.728;2023-09-18T08:35:11;96666.47;;;20.86;30.77
45129;BME280;35512;56.312;101.728;2023-09-18T08:37:40;96662.66;;;21.00;30.45
45129;BME280;35512;56.312;101.728;2023-09-18T08:40:10;96661.91;;;21.16;30.53
45129;BME280;35512;56.312;101.728;2023-09-18T08:42:40;96660.47;;;21.27;30.29
45129;BME280;35512;56.312;101.728;2023-09-18T08:45:09;96666.16;;;21.37;30.31
45129;BME280;35512;56.312;101.728;2023-09-18T08:47:39;96660.56;;;21.40;29.99
45129;BME280;35512;56.312;101.728;2023-09-18T08:50:10;96663.72;;;21.39;30.41
45129;BME280;35512;56.312;101.728;2023-09-18T08:52:39;96660.56;;;21.40;30.49
45129;BME280;35512;56.312;101.728;2023-09-18T08:55:08;96655.84;;;21.41;30.82
45129;BME280;35512;56.312;101.728;2023-09-18T08:57:37;96661.69;;;21.43;31.04
45129;BME280;35512;56.312;101.728;2023-09-18T09:00:07;96658.09;;;21.46;31.01
45129;BME280;35512;56.312;101.728;2023-09-18T09:02:36;96658.28;;;21.55;30.76
45129;BME280;35512;56.312;101.728;2023-09-18T09:05:07;96661.00;;;21.72;30.84
45129;BME280;35512;56.312;101.728;2023-09-18T09:07:35;96661.81;;;21.72;30.94
45129;BME280;35512;56.312;101.728;2023-09-18T09:10:04;96668.53;;;21.51;31.59
45129;BME280;35512;56.312;101.728;2023-09-18T09:12:49;96663.03;;;21.35;32.07
45129;BME280;35512;56.312;101.728;2023-09-18T09:15:18;96664.16;;;21.37;32.47
45129;BME280;35512;56.312;101.728;2023-09-18T09:17:47;96672.44;;;21.54;32.56
45129;BME280;35512;56.312;101.728;2023-09-18T09:20:15;96672.00;;;21.55;32.63
45129;BME280;35512;56.312;101.728;2023-09-18T09:22:46;96668.47;;;21.38;32.80
45129;BME280;35512;56.312;101.728;2023-09-18T09:25:22;96673.41;;;21.10;33.27
45129;BME280;35512;56.312;101.728;2023-09-18T09:27:52;96673.69;;;20.80;33.79
45129;BME280;35512;56.312;101.728;2023-09-18T09:30:22;96673.88;;;20.69;33.86
45129;BME280;35512;56.312;101.728;2023-09-18T09:32:52;96675.84;;;20.88;33.48
45129;BME280;35512;56.312;101.728;2023-09-18T09:37:50;96672.28;;;21.08;33.12
45129;BME280;35512;56.312;101.728;2023-09-18T09:40:20;96674.81;;;21.19;32.81
45129;BME280;35512;56.312;101.728;2023-09-18T09:42:50;96670.69;;;21.27;33.01
45129;BME280;35512;56.312;101.728;2023-09-18T09:45:19;96674.00;;;21.18;33.26
45129;BME280;35512;56.312;101.728;2023-09-18T09:47:48;96675.00;;;20.91;33.90
45129;BME280;35512;56.312;101.728;2023-09-18T09:50:22;96678.66;;;20.85;33.76
45129;BME280;35512;56.312;101.728;2023-09-18T09:52:54;96674.88;;;20.79;33.77
45129;BME280;35512;56.312;101.728;2023-09-18T09:55:26;96677.53;;;20.62;34.04
45129;BME280;35512;56.312;101.728;2023-09-18T09:57:59;96676.97;;;20.51;34.58
45129;BME280;35512;56.312;101.728;2023-09-18T10:00:31;96671.47;;;20.31;34.75
45129;BME280;35512;56.312;101.728;2023-09-18T10:03:06;96674.41;;;20.20;35.22
45129;BME280;35512;56.312;101.728;2023-09-18T10:05:35;96676.16;;;20.10;35.29
45129;BME280;35512;56.312;101.728;2023-09-18T10:08:06;96673.34;;;20.14;35.25
45129;BME280;35512;56.312;101.728;2023-09-18T10:10:37;96662.03;;;20.12;35.55
45129;BME280;35512;56.312;101.728;2023-09-18T10:13:11;96666.09;;;20.03;35.52
45129;BME280;35512;56.312;101.728;2023-09-18T10:15:40;96672.59;;;19.89;35.93
45129;BME280;35512;56.312;101.728;2023-09-18T10:18:17;96667.75;;;19.73;35.98
45129;BME280;35512;56.312;101.728;2023-09-18T10:20:48;96668.38;;;19.57;35.98
45129;BME280;35512;56.312;101.728;2023-09-18T10:23:41;96675.75;;;19.37;36.02
45129;BME280;35512;56.312;101.728;2023-09-18T10:26:13;96673.78;;;19.10;36.57
45129;BME280;35512;56.312;101.728;2023-09-18T10:28:44;96678.00;;;18.84;36.68
45129;BME280;35512;56.312;101.728;2023-09-18T10:31:12;96675.53;;;18.62;36.93
45129;BME280;35512;56.312;101.728;2023-09-18T10:33:41;96670.69;;;18.42;37.19
45129;BME280;35512;56.312;101.728;2023-09-18T10:36:10;96672.09;;;18.23;37.63
45129;BME280;35512;56.312;101.728;2023-09-18T10:38:41;96678.94;;;18.01;37.64
45129;BME280;35512;56.312;101.728;2023-09-18T10:41:09;96666.59;;;17.82;37.91
45129;BME280;35512;56.312;101.728;2023-09-18T10:43:39;96671.44;;;17.63;38.02
45129;BME280;35512;56.312;101.728;2023-09-18T10:46:08;96673.53;;;17.45;38.00
45129;BME280;35512;56.312;101.728;2023-09-18T10:48:36;96674.81;;;17.29;38.16
45129;BME280;35512;56.312;101.728;2023-09-18T10:51:10;96676.47;;;17.16;37.98
45129;BME280;35512;56.312;101.728;2023-09-18T10:53:39;96675.75;;;17.04;38.18
45129;BME280;35512;56.312;101.728;2023-09-18T10:56:09;96671.13;;;16.90;38.16
45129;BME280;35512;56.312;101.728;2023-09-18T10:58:39;96674.69;;;16.77;38.24
45129;BME280;35512;56.312;101.728;2023-09-18T11:01:11;96679.41;;;16.65;38.36
45129;BME280;35512;56.312;101.728;2023-09-18T11:03:41;96674.00;;;16.51;38.42
45129;BME280;35512;56.312;101.728;2023-09-18T11:06:13;96670.56;;;16.39;38.61
45129;BME280;35512;56.312;101.728;2023-09-18T11:08:44;96673.69;;;16.27;38.68
45129;BME280;35512;56.312;101.728;2023-09-18T11:11:14;96665.94;;;16.15;38.57
45129;BME280;35512;56.312;101.728;2023-09-18T11:13:52;96666.75;;;16.04;38.80
45129;BME280;35512;56.312;101.728;2023-09-18T11:21:31;96665.63;;;15.91;39.20
45129;BME280;35512;56.312;101.728;2023-09-18T11:26:33;96675.34;;;15.88;39.28
45129;BME280;35512;56.312;101.728;2023-09-18T11:29:04;96670.66;;;15.89;39.34
45129;BME280;35512;56.312;101.728;2023-09-18T11:31:46;96673.00;;;15.91;39.34
45129;BME280;35512;56.312;101.728;2023-09-18T11:34:33;96675.31;;;15.92;39.70
45129;BME280;35512;56.312;101.728;2023-09-18T11:37:21;96676.50;;;15.95;39.62
45129;BME280;35512;56.312;101.728;2023-09-18T11:39:51;96670.66;;;15.96;39.67
45129;BME280;35512;56.312;101.728;2023-09-18T11:42:21;96672.59;;;15.99;39.83
45129;BME280;35512;56.312;101.728;2023-09-18T11:44:54;96676.09;;;16.00;39.80
45129;BME280;35512;56.312;101.728;2023-09-18T11:47:24;96680.75;;;16.03;40.05
45129;BME280;35512;56.312;101.728;2023-09-18T11:49:59;96681.16;;;16.05;40.11
45129;BME280;35512;56.312;101.728;2023-09-18T11:52:30;96682.72;;;16.06;40.10
45129;BME280;35512;56.312;101.728;2023-09-18T11:54:59;96679.19;;;16.05;40.48
45129;BME280;35512;56.312;101.728;2023-09-18T11:57:29;96681.91;;;16.02;40.58
45129;BME280;35512;56.312;101.728;2023-09-18T12:00:04;96680.38;;;16.01;40.72
45129;BME280;35512;56.312;101.728;2023-09-18T12:02:40;96682.72;;;16.02;41.01
45129;BME280;35512;56.312;101.728;2023-09-18T12:05:15;96693.59;;;16.06;41.42
45129;BME280;35512;56.312;101.728;2023-09-18T12:07:44;96692.03;;;16.09;41.91
45129;BME280;35512;56.312;101.728;2023-09-18T12:10:17;96688.94;;;16.07;41.73
45129;BME280;35512;56.312;101.728;2023-09-18T12:12:46;96693.22;;;16.08;42.19
45129;BME280;35512;56.312;101.728;2023-09-18T12:15:17;96692.41;;;16.07;42.49
45129;BME280;35512;56.312;101.728;2023-09-18T12:17:45;96694.78;;;16.05;42.41
45129;BME280;35512;56.312;101.728;2023-09-18T12:20:15;96694.38;;;16.03;42.62
45129;BME280;35512;56.312;101.728;2023-09-18T12:22:47;96698.25;;;16.02;42.54
45129;BME280;35512;56.312;101.728;2023-09-18T12:25:16;96695.94;;;16.00;42.37
45129;BME280;35512;56.312;101.728;2023-09-18T12:27:51;96696.31;;;15.99;42.63
45129;BME280;35512;56.312;101.728;2023-09-18T12:30:19;96697.88;;;15.96;42.97
45129;BME280;35512;56.312;101.728;2023-09-18T12:32:50;96699.84;;;15.92;43.23
45129;BME280;35512;56.312;101.728;2023-09-18T12:35:21;96701.00;;;15.84;42.95
45129;BME280;35512;56.312;101.728;2023-09-18T12:37:51;96700.22;;;15.80;42.75
45129;BME280;35512;56.312;101.728;2023-09-18T12:40:23;96702.56;;;15.78;43.52
45129;BME280;35512;56.312;101.728;2023-09-18T12:42:53;96706.41;;;15.73;43.59
45129;BME280;35512;56.312;101.728;2023-09-18T12:45:23;96710.31;;;15.68;43.84
45129;BME280;35512;56.312;101.728;2023-09-18T12:47:54;96709.53;;;15.64;44.60
45129;BME280;35512;56.312;101.728;2023-09-18T12:50:24;96709.53;;;15.57;44.87
45129;BME280;35512;56.312;101.728;2023-09-18T12:52:53;96710.31;;;15.47;44.84
45129;BME280;35512;56.312;101.728;2023-09-18T12:55:22;96712.22;;;15.39;45.34
45129;BME280;35512;56.312;101.728;2023-09-18T12:57:52;96716.50;;;15.29;45.50
45129;BME280;35512;56.312;101.728;2023-09-18T13:00:22;96705.97;;;15.17;45.65
45129;BME280;35512;56.312;101.728;2023-09-18T13:02:51;96712.19;;;15.07;45.71
45129;BME280;35512;56.312;101.728;2023-09-18T13:05:24;96702.03;;;14.96;46.06
45129;BME280;35512;56.312;101.728;2023-09-18T13:08:04;96702.41;;;14.91;45.74